Time;durP1;ratioP1;P1;durP2;ratioP2;P2;SDS_P1;SDS_P2;PMS_P1;PMS_P2;Temp;Humidity;BMP_temperature;BMP_pressure;BME280_temperature;BME280_humidity;BME280_pressure;Samples;Min_cycle;Max_cycle;Signal;HPM_P1;HPM_P2
2021/12/18 00:00:53;;;;;;;18.30;10.90;;;;;;;1.15;100.00;98060.97;4970632;28;20216;-82
2021/12/18 00:03:20;;;;;;;18.40;10.30;;;;;;;1.16;100.00;98059.16;4967661;28;20224;-82
2021/12/18 00:05:47;;;;;;;18.67;10.43;;;;;;;1.14;100.00;98053.97;4983507;28;20216;-81
2021/12/18 00:08:14;;;;;;;16.87;10.20;;;;;;;1.18;100.00;98060.72;4969518;28;20240;-81
2021/12/18 00:10:44;;;;;;;16.43;10.30;;;;;;;1.15;100.00;98058.31;4965428;28;20245;-81
2021/12/18 00:13:12;;;;;;;18.80;10.90;;;;;;;1.12;100.00;98055.91;4969259;28;20213;-82
2021/12/18 00:15:39;;;;;;;20.37;10.07;;;;;;;1.12;100.00;98061.22;4983253;28;20219;-80
2021/12/18 00:18:07;;;;;;;19.30;10.77;;;;;;;1.09;100.00;98058.84;4962064;28;20268;-82
2021/12/18 00:20:36;;;;;;;16.00;9.90;;;;;;;1.01;100.00;98045.34;4968073;28;20215;-80
2021/12/18 00:23:03;;;;;;;15.83;9.80;;;;;;;1.05;100.00;98057.41;4972342;28;20222;-80
2021/12/18 00:25:31;;;;;;;18.47;9.80;;;;;;;1.00;100.00;98046.31;4987897;28;20224;-81
2021/12/18 00:28:00;;;;;;;16.73;10.30;;;;;;;0.95;100.00;98053.81;4984572;28;20215;-81
2021/12/18 00:30:27;;;;;;;18.10;10.67;;;;;;;0.91;100.00;98049.75;4964013;28;20260;-81
2021/12/18 00:32:55;;;;;;;16.97;10.17;;;;;;;0.88;100.00;98044.69;4981338;28;20240;-81
2021/12/18 00:35:22;;;;;;;16.67;10.17;;;;;;;0.96;100.00;98050.19;4988035;28;20227;-81
2021/12/18 00:37:49;;;;;;;16.93;10.17;;;;;;;0.93;100.00;98048.66;4964946;28;20258;-81
2021/12/18 00:40:23;;;;;;;17.20;10.57;;;;;;;0.93;100.00;98037.19;4983061;28;20210;-82
2021/12/18 00:42:57;;;;;;;17.23;11.23;;;;;;;0.99;100.00;98034.00;4965371;28;20219;-81
2021/12/18 00:45:28;;;;;;;17.50;10.30;;;;;;;0.96;100.00;98020.94;4982967;28;20265;-81
2021/12/18 00:47:56;;;;;;;17.57;10.47;;;;;;;0.89;100.00;98022.44;4980890;28;20217;-81
2021/12/18 00:50:25;;;;;;;16.80;10.37;;;;;;;0.82;100.00;98023.94;4970434;28;20219;-81
2021/12/18 00:52:53;;;;;;;17.30;10.23;;;;;;;0.79;100.00;98025.03;4963516;28;20236;-81
2021/12/18 00:55:21;;;;;;;19.00;10.10;;;;;;;0.68;100.00;98015.28;4968292;28;20263;-82
2021/12/18 00:57:49;;;;;;;16.07;9.90;;;;;;;0.77;100.00;98027.81;4983127;28;20241;-81
2021/12/18 01:00:22;;;;;;;16.23;9.77;;;;;;;0.77;100.00;98014.50;4977763;28;20215;-81
2021/12/18 01:02:55;;;;;;;16.37;9.83;;;;;;;0.79;100.00;98018.84;4982911;28;20212;-82
2021/12/18 01:05:22;;;;;;;15.73;9.63;;;;;;;0.91;100.00;98020.50;4967953;28;20216;-81
2021/12/18 01:07:49;;;;;;;14.97;8.93;;;;;;;0.86;100.00;98022.69;4987554;28;20296;-82
2021/12/18 01:10:36;;;;;;;15.33;9.53;;;;;;;0.80;100.00;98020.53;4960465;28;20218;-82
2021/12/18 01:13:06;;;;;;;14.50;9.80;;;;;;;0.77;100.00;98012.84;4966664;28;20272;-83
2021/12/18 01:15:38;;;;;;;16.17;9.50;;;;;;;0.72;100.00;98006.09;4967266;28;20205;-81
2021/12/18 01:23:37;;;;;;;15.10;8.83;;;;;;;0.64;100.00;98008.53;4964409;28;20244;-81
2021/12/18 01:26:05;;;;;;;15.73;9.40;;;;;;;0.59;100.00;98008.09;4963095;28;20246;-81
2021/12/18 01:28:33;;;;;;;15.00;8.80;;;;;;;0.66;100.00;98016.41;4967650;28;20205;-83
2021/12/18 01:31:01;;;;;;;15.40;8.80;;;;;;;0.74;100.00;98003.31;4968417;28;20205;-81
2021/12/18 01:33:30;;;;;;;17.57;9.17;;;;;;;0.81;100.00;98008.94;4972620;28;20216;-82
2021/12/18 01:36:00;;;;;;;14.97;9.00;;;;;;;0.84;100.00;98001.56;4983595;28;20209;-80
2021/12/18 01:38:28;;;;;;;13.03;8.20;;;;;;;0.91;100.00;98009.84;4975065;28;20253;-82
2021/12/18 01:40:56;;;;;;;15.93;8.93;;;;;;;0.94;100.00;98014.91;4964028;28;20308;-81
2021/12/18 01:46:15;;;;;;;16.33;9.40;;;;;;;0.77;100.00;98012.84;4983237;28;20348;-81
2021/12/18 01:51:45;;;;;;;18.07;9.50;;;;;;;0.75;100.00;98016.47;4965585;28;20292;-81
2021/12/18 01:54:12;;;;;;;17.67;9.70;;;;;;;0.72;100.00;98008.75;4966977;28;20202;-81
2021/12/18 01:56:40;;;;;;;14.60;8.93;;;;;;;0.64;100.00;98003.22;4964341;28;20264;-82
2021/12/18 01:59:07;;;;;;;15.00;9.17;;;;;;;0.66;100.00;98000.44;4972593;28;20209;-81
2021/12/18 02:01:34;;;;;;;16.57;9.50;;;;;;;0.72;100.00;98006.09;4961925;28;20281;-83
2021/12/18 02:04:03;;;;;;;15.87;9.53;;;;;;;0.69;100.00;98006.31;4960793;28;20213;-82
2021/12/18 02:06:30;;;;;;;17.93;9.40;;;;;;;0.72;100.00;98006.09;4982467;28;20209;-81
2021/12/18 02:08:57;;;;;;;17.23;9.90;;;;;;;0.82;100.00;98022.13;4961758;28;20205;-82
2021/12/18 02:11:31;;;;;;;15.63;9.13;;;;;;;0.78;100.00;98015.34;4984502;28;20295;-82
2021/12/18 02:14:22;;;;;;;15.33;9.10;;;;;;;0.82;100.00;98013.28;4980179;28;20831;-82
2021/12/18 02:22:26;;;;;;;15.27;9.03;;;;;;;0.82;100.00;97995.53;4966895;28;20207;-82
2021/12/18 02:24:53;;;;;;;14.43;8.70;;;;;;;0.74;100.00;97982.88;4962637;28;20205;-82
2021/12/18 02:27:20;;;;;;;19.17;9.57;;;;;;;0.69;100.00;97974.44;4978667;28;20223;-81
2021/12/18 02:29:48;;;;;;;15.43;9.40;;;;;;;0.73;100.00;97985.66;4979298;28;20233;-81
2021/12/18 02:32:19;;;;;;;15.53;8.57;;;;;;;0.62;100.00;97973.25;4970607;28;20226;-80
2021/12/18 02:34:52;;;;;;;16.40;8.93;;;;;;;0.59;100.00;97970.88;4985085;28;20219;-81
2021/12/18 02:37:38;;;;;;;14.83;8.97;;;;;;;0.55;100.00;97961.47;4972266;28;20229;-82
2021/12/18 02:42:52;;;;;;;13.93;8.73;;;;;;;0.41;100.00;97958.28;4967938;28;20213;-81
2021/12/18 02:45:21;;;;;;;14.53;8.53;;;;;;;0.31;100.00;97952.88;4968972;28;20228;-81
2021/12/18 02:47:49;;;;;;;15.23;8.93;;;;;;;0.22;100.00;97943.84;4963837;28;20213;-81
2021/12/18 02:50:16;;;;;;;14.43;8.67;;;;;;;0.19;100.00;97940.59;4972157;28;20200;-81
2021/12/18 02:52:44;;;;;;;16.00;8.17;;;;;;;0.14;100.00;97937.50;4979658;28;20255;-81
2021/12/18 02:55:12;;;;;;;18.23;9.70;;;;;;;0.28;100.00;97930.06;4985529;28;20317;-82
2021/12/18 02:57:39;;;;;;;15.77;8.40;;;;;;;0.18;100.00;97925.63;4986004;28;20221;-82
2021/12/18 03:00:08;;;;;;;13.67;8.03;;;;;;;0.20;100.00;97923.69;4961890;28;20200;-81
2021/12/18 03:02:40;;;;;;;14.20;8.37;;;;;;;0.17;100.00;97924.78;4985671;28;20205;-82
2021/12/18 03:05:10;;;;;;;13.70;7.87;;;;;;;0.18;100.00;97920.31;4969592;28;20236;-81
2021/12/18 03:07:38;;;;;;;13.47;7.97;;;;;;;0.25;100.00;97918.88;4968710;28;20217;-82
2021/12/18 03:24:09;;;;;;;15.77;8.47;;;;;;;0.61;100.00;97923.72;4980880;28;20460;-82
2021/12/18 03:26:38;;;;;;;15.13;7.93;;;;;;;0.60;100.00;97926.50;4977909;28;20211;-82
2021/12/18 03:29:05;;;;;;;14.47;8.87;;;;;;;0.55;100.00;97918.94;4966051;28;20206;-81
2021/12/18 03:31:33;;;;;;;14.97;9.17;;;;;;;0.55;100.00;97918.94;4986028;28;20236;-82
2021/12/18 03:34:01;;;;;;;15.47;8.93;;;;;;;0.57;100.00;97922.31;4984836;28;20207;-81
2021/12/18 03:36:28;;;;;;;14.30;8.70;;;;;;;0.59;100.00;97920.38;4970391;28;20231;-83
2021/12/18 03:38:55;;;;;;;15.43;9.37;;;;;;;0.63;100.00;97936.88;4971798;28;20225;-81
2021/12/18 03:41:22;;;;;;;15.87;9.13;;;;;;;0.59;100.00;97931.00;4984114;28;20218;-81
2021/12/18 03:43:50;;;;;;;17.43;9.53;;;;;;;0.60;100.00;97927.34;4979088;28;20212;-81
2021/12/18 03:46:18;;;;;;;13.97;9.07;;;;;;;0.59;100.00;97924.84;4982492;28;20296;-82
2021/12/18 03:48:45;;;;;;;16.80;10.10;;;;;;;0.60;100.00;97932.66;4967208;28;20229;-82
2021/12/18 03:51:12;;;;;;;18.20;10.43;;;;;;;0.57;100.00;97932.94;4983341;28;20208;-81
2021/12/18 03:53:39;;;;;;;19.03;9.90;;;;;;;0.59;100.00;97940.78;4967917;28;20227;-81
2021/12/18 03:56:06;;;;;;;15.60;9.67;;;;;;;0.57;100.00;97938.25;4966797;28;20236;-81
2021/12/18 03:58:33;;;;;;;16.30;10.07;;;;;;;0.55;100.00;97934.03;4987276;28;20324;-81
2021/12/18 04:01:02;;;;;;;17.80;9.87;;;;;;;0.49;100.00;97926.59;4967842;28;20220;-81
2021/12/18 04:03:29;;;;;;;17.63;9.57;;;;;;;0.46;100.00;97933.00;4981496;28;20235;-81
2021/12/18 04:05:56;;;;;;;15.90;9.73;;;;;;;0.50;100.00;97928.28;4984554;28;20221;-81
2021/12/18 04:08:23;;;;;;;22.43;11.27;;;;;;;0.50;100.00;97925.63;4989436;28;20208;-81
2021/12/18 04:10:50;;;;;;;18.07;10.47;;;;;;;0.51;100.00;97928.13;4988034;28;20319;-81
2021/12/18 04:13:18;;;;;;;15.67;9.40;;;;;;;0.51;100.00;97933.44;4969545;28;20214;-81
2021/12/18 04:15:45;;;;;;;19.27;11.53;;;;;;;0.49;100.00;97939.88;4968338;28;20284;-83
2021/12/18 04:18:14;;;;;;;14.43;9.03;;;;;;;0.40;100.00;97935.34;4972258;28;20397;-82
2021/12/18 04:20:41;;;;;;;16.63;9.67;;;;;;;0.29;100.00;97933.56;4976528;28;20216;-83
2021/12/18 04:23:08;;;;;;;19.23;11.13;;;;;;;0.22;100.00;97927.91;4965541;28;20209;-81
2021/12/18 04:25:35;;;;;;;17.23;9.93;;;;;;;0.23;100.00;97928.75;4969108;28;20216;-81
2021/12/18 04:28:02;;;;;;;19.50;10.10;;;;;;;0.18;100.00;97928.28;4968439;28;20256;-83
2021/12/18 04:30:29;;;;;;;19.87;10.50;;;;;;;0.16;100.00;97938.22;4974992;28;20307;-81
2021/12/18 04:32:56;;;;;;;16.53;9.77;;;;;;;0.17;100.00;97934.59;4971424;28;20216;-82
2021/12/18 04:35:25;;;;;;;18.00;9.77;;;;;;;0.11;100.00;97935.94;4974530;28;20201;-81
2021/12/18 04:37:52;;;;;;;16.17;9.67;;;;;;;0.20;100.00;97942.28;4966689;28;20233;-81
2021/12/18 04:40:24;;;;;;;16.20;9.50;;;;;;;0.23;100.00;97944.72;4970720;28;20202;-82
2021/12/18 04:42:51;;;;;;;17.10;10.33;;;;;;;0.23;100.00;97950.03;4963160;28;20227;-82
2021/12/18 04:45:18;;;;;;;17.67;10.17;;;;;;;0.30;100.00;97959.16;4965277;28;20283;-81
2021/12/18 04:47:46;;;;;;;16.63;10.27;;;;;;;0.28;100.00;97961.94;4966481;28;20495;-81
2021/12/18 04:50:13;;;;;;;16.70;10.10;;;;;;;0.30;100.00;97964.47;4964130;28;20276;-81
2021/12/18 04:52:41;;;;;;;17.23;10.33;;;;;;;0.37;100.00;97970.97;4983830;28;20206;-83
2021/12/18 04:55:09;;;;;;;17.77;9.90;;;;;;;0.27;100.00;97964.72;4982100;28;20219;-83
2021/12/18 04:57:36;;;;;;;16.33;9.70;;;;;;;0.25;100.00;97962.22;4959221;28;20227;-81
2021/12/18 05:00:06;;;;;;;15.80;9.60;;;;;;;0.32;100.00;97960.72;4976787;28;20206;-82
2021/12/18 05:02:37;;;;;;;15.13;9.57;;;;;;;0.34;100.00;97960.63;4984493;28;20291;-82
2021/12/18 05:05:06;;;;;;;16.27;9.97;;;;;;;0.40;100.00;97956.59;4965754;28;20228;-82
2021/12/18 05:07:33;;;;;;;15.17;9.30;;;;;;;0.36;100.00;97956.84;4985570;28;20211;-82
2021/12/18 05:10:02;;;;;;;17.53;9.70;;;;;;;0.28;100.00;97948.66;4982355;28;20240;-81
2021/12/18 05:12:29;;;;;;;15.73;8.90;;;;;;;0.28;100.00;97964.59;4961030;28;20209;-82
2021/12/18 05:14:56;;;;;;;17.73;9.90;;;;;;;0.16;100.00;97955.00;4966212;28;20209;-80
2021/12/18 05:17:23;;;;;;;17.37;9.80;;;;;;;0.10;100.00;97954.63;4977444;28;20242;-81
2021/12/18 05:19:51;;;;;;;16.77;10.30;;;;;;;0.13;100.00;97949.94;4980655;28;20204;-81
2021/12/18 05:22:18;;;;;;;16.97;9.83;;;;;;;0.12;100.00;97953.56;4969276;28;20224;-81
2021/12/18 05:24:45;;;;;;;17.00;9.73;;;;;;;0.16;100.00;97959.47;4977611;28;20215;-81
2021/12/18 05:27:13;;;;;;;16.17;9.13;;;;;;;0.13;100.00;97959.72;4963885;28;20228;-81
2021/12/18 05:29:40;;;;;;;16.37;9.20;;;;;;;0.07;100.00;97969.03;4983392;28;20208;-82
2021/12/18 05:32:08;;;;;;;15.13;9.07;;;;;;;0.08;100.00;97954.78;4978469;28;20209;-81
2021/12/18 05:34:37;;;;;;;15.47;9.00;;;;;;;0.10;100.00;97954.63;4982738;28;20209;-83
2021/12/18 05:39:55;;;;;;;18.70;9.53;;;;;;;0.10;100.00;97949.31;4963677;28;20213;-82
2021/12/18 05:42:23;;;;;;;15.50;9.33;;;;;;;0.07;100.00;97952.25;4980059;28;20235;-81
2021/12/18 05:44:51;;;;;;;18.57;9.80;;;;;;;0.09;100.00;97947.63;4979759;28;20244;-81
2021/12/18 05:47:19;;;;;;;15.27;9.23;;;;;;;0.05;100.00;97946.22;4959281;28;20207;-81
2021/12/18 05:49:46;;;;;;;13.80;8.63;;;;;;;0.01;100.00;97942.97;4979536;28;20209;-81
2021/12/18 05:52:13;;;;;;;15.03;9.20;;;;;;;0.02;100.00;97941.16;4963197;28;20249;-81
2021/12/18 05:54:40;;;;;;;14.90;9.10;;;;;;;0.02;100.00;97938.50;4980823;28;20247;-82
2021/12/18 05:57:09;;;;;;;14.77;9.13;;;;;;;0.09;100.00;97939.66;4962329;28;20205;-81
2021/12/18 05:59:38;;;;;;;15.10;8.87;;;;;;;0.09;100.00;97937.00;4978281;28;20228;-81
2021/12/18 06:02:05;;;;;;;14.90;9.20;;;;;;;0.15;100.00;97941.84;4962357;28;20247;-81
2021/12/18 06:04:32;;;;;;;14.17;8.60;;;;;;;0.19;100.00;97936.13;4967450;28;20217;-81
2021/12/18 06:07:05;;;;;;;13.43;7.97;;;;;;;0.31;100.00;97947.56;4977457;28;20582;-82
2021/12/18 06:09:35;;;;;;;15.43;8.50;;;;;;;0.32;100.00;97938.63;4976371;28;20213;-81
2021/12/18 06:12:03;;;;;;;14.20;8.57;;;;;;;0.36;100.00;97934.72;4979258;28;20251;-81
2021/12/18 06:14:30;;;;;;;14.57;9.10;;;;;;;0.43;100.00;97937.72;4965686;28;20213;-82
2021/12/18 06:16:58;;;;;;;13.53;8.07;;;;;;;0.45;100.00;97928.66;4966850;28;20220;-82
2021/12/18 06:19:26;;;;;;;13.87;8.40;;;;;;;0.46;100.00;97930.34;4960343;28;20240;-81
2021/12/18 06:21:53;;;;;;;14.57;8.80;;;;;;;0.44;100.00;97923.44;4966540;28;20211;-82
2021/12/18 06:24:20;;;;;;;14.60;8.93;;;;;;;0.49;100.00;97914.16;4982157;28;20204;-82
2021/12/18 06:26:47;;;;;;;14.50;8.80;;;;;;;0.48;100.00;97917.78;4968925;28;20290;-82
2021/12/18 06:29:14;;;;;;;13.07;8.53;;;;;;;0.41;100.00;97929.88;4965563;28;20296;-82
2021/12/18 06:31:41;;;;;;;13.37;8.87;;;;;;;0.35;100.00;97925.06;4981141;28;20245;-82
2021/12/18 06:34:09;;;;;;;15.20;9.20;;;;;;;0.27;100.00;97924.88;4975814;28;20205;-82
2021/12/18 06:36:36;;;;;;;13.43;8.73;;;;;;;0.25;100.00;97925.03;4980031;28;21441;-81
2021/12/18 06:39:04;;;;;;;14.93;8.83;;;;;;;0.30;100.00;97940.56;4970462;28;20288;-82
2021/12/18 06:41:31;;;;;;;15.73;8.77;;;;;;;0.30;100.00;97929.94;4981429;28;20211;-81
2021/12/18 06:43:58;;;;;;;17.17;9.70;;;;;;;0.24;100.00;97922.47;4967072;28;20324;-81
2021/12/18 06:46:25;;;;;;;13.90;8.83;;;;;;;0.28;100.00;97937.19;4977722;28;20236;-82
2021/12/18 06:48:53;;;;;;;14.73;9.03;;;;;;;0.19;100.00;97927.31;4973881;28;20237;-81
2021/12/18 06:51:21;;;;;;;15.13;8.93;;;;;;;0.11;100.00;97929.78;4962158;28;20217;-81
2021/12/18 06:53:49;;;;;;;15.43;8.73;;;;;;;0.13;100.00;97936.66;4974625;28;20301;-81
2021/12/18 06:56:16;;;;;;;14.77;8.77;;;;;;;0.12;100.00;97932.31;4970926;28;20217;-81
2021/12/18 06:58:43;;;;;;;14.97;9.77;;;;;;;0.09;100.00;97939.66;4956360;28;20252;-81
2021/12/18 07:01:10;;;;;;;17.10;10.07;;;;;;;0.05;100.00;97936.44;4972971;28;20217;-82
2021/12/18 07:03:38;;;;;;;13.63;8.70;;;;;;;0.02;100.00;97942.00;4974704;28;20310;-81
2021/12/18 07:06:05;;;;;;;16.93;9.93;;;;;;;0.08;100.00;97951.28;4976994;28;20205;-81
2021/12/18 07:08:33;;;;;;;19.57;10.17;;;;;;;0.07;100.00;97954.91;4967194;28;20201;-81
2021/12/18 07:11:01;;;;;;;17.30;8.93;;;;;;;0.03;100.00;97946.34;4974942;28;20205;-81
2021/12/18 07:13:28;;;;;;;15.30;8.70;;;;;;;0.05;100.00;97964.81;4965552;28;20213;-82
2021/12/18 07:15:55;;;;;;;17.67;9.97;;;;;;;0.09;100.00;97974.19;4978358;28;20212;-81
2021/12/18 07:18:22;;;;;;;17.63;10.23;;;;;;;0.08;100.00;97972.53;4980446;28;20308;-81
2021/12/18 07:20:51;;;;;;;19.70;10.93;;;;;;;0.10;100.00;97975.88;4983767;28;20215;-81
2021/12/18 07:23:18;;;;;;;22.30;10.37;;;;;;;0.10;100.00;97970.56;4971847;28;20273;-80
2021/12/18 07:25:47;;;;;;;19.20;10.40;;;;;;;0.14;100.00;97972.03;4979535;28;20240;-82
2021/12/18 07:28:14;;;;;;;18.37;9.90;;;;;;;0.20;100.00;97975.00;4965061;28;20205;-81
2021/12/18 07:30:41;;;;;;;18.40;10.83;;;;;;;0.15;100.00;97979.88;4972780;28;20200;-81
2021/12/18 07:33:10;;;;;;;19.20;10.77;;;;;;;0.13;100.00;97976.50;4987239;28;20224;-82
2021/12/18 07:35:38;;;;;;;20.03;10.80;;;;;;;0.19;100.00;97985.75;4964508;28;20221;-81
2021/12/18 07:38:05;;;;;;;17.37;9.67;;;;;;;0.27;100.00;97980.66;4983063;28;20212;-82
2021/12/18 07:40:33;;;;;;;19.80;10.73;;;;;;;0.30;100.00;97985.72;4970301;28;20209;-81
2021/12/18 07:43:02;;;;;;;19.30;10.37;;;;;;;0.24;100.00;97984.44;4978689;28;20209;-81
2021/12/18 07:45:33;;;;;;;18.43;10.30;;;;;;;0.25;100.00;97979.97;4983911;28;20245;-81
2021/12/18 07:48:00;;;;;;;17.93;9.63;;;;;;;0.33;100.00;97988.16;4983136;28;20224;-80
2021/12/18 07:50:29;;;;;;;18.63;10.60;;;;;;;0.26;100.00;97997.56;4970011;28;20208;-81
2021/12/18 07:52:56;;;;;;;16.33;9.73;;;;;;;0.21;100.00;97990.00;4985084;28;20216;-81
2021/12/18 07:55:23;;;;;;;15.83;9.53;;;;;;;0.17;100.00;97983.22;4978902;28;20237;-82
2021/12/18 07:57:51;;;;;;;18.23;9.50;;;;;;;0.15;100.00;97979.03;4990134;28;20243;-80
2021/12/18 08:00:21;;;;;;;17.63;9.47;;;;;;;0.20;100.00;97993.59;4977323;28;20296;-83
2021/12/18 08:02:48;;;;;;;15.80;10.07;;;;;;;0.16;100.00;97980.72;4976198;28;20217;-81
2021/12/18 08:05:16;;;;;;;17.00;9.63;;;;;;;0.16;100.00;97991.34;4979412;28;20202;-80
2021/12/18 08:07:43;;;;;;;20.80;11.07;;;;;;;0.11;100.00;97991.72;4986853;28;20303;-82
2021/12/18 08:10:11;;;;;;;16.80;9.93;;;;;;;0.17;100.00;97991.19;4982670;28;20209;-81
2021/12/18 08:12:38;;;;;;;19.07;9.83;;;;;;;0.16;100.00;97989.53;4967313;28;20213;-81
2021/12/18 08:15:07;;;;;;;27.20;15.33;;;;;;;0.12;100.00;97997.88;4963718;28;20241;-82
2021/12/18 08:17:36;;;;;;;22.27;12.87;;;;;;;0.10;100.00;97997.13;4971841;28;20205;-81
2021/12/18 08:20:04;;;;;;;28.77;16.07;;;;;;;0.02;100.00;97994.25;4987667;28;20249;-81
2021/12/18 08:22:31;;;;;;;24.17;13.20;;;;;;;0.03;100.00;97998.59;4971869;28;20304;-82
2021/12/18 08:24:58;;;;;;;19.33;9.77;;;;;;;0.00;100.00;97984.59;4965064;28;20207;-80
2021/12/18 08:27:25;;;;;;;20.60;9.77;;;;;;;0.02;100.00;97987.13;4954045;28;20217;-81
2021/12/18 08:29:52;;;;;;;17.83;9.20;;;;;;;-0.10;100.00;97977.53;4971850;28;20229;-82
2021/12/18 08:32:20;;;;;;;35.67;19.17;;;;;;;-0.08;100.00;97973.75;4964953;28;20300;-82
2021/12/18 08:34:48;;;;;;;27.37;16.40;;;;;;;-0.06;100.00;97989.56;4968297;28;20271;-81
2021/12/18 08:37:15;;;;;;;29.70;17.40;;;;;;;-0.05;100.00;97984.16;4961049;28;20246;-81
2021/12/18 08:39:42;;;;;;;17.17;9.47;;;;;;;-0.06;100.00;97971.84;4963702;28;20232;-81
2021/12/18 08:42:09;;;;;;;17.83;9.57;;;;;;;0.02;100.00;97965.91;4974102;28;20296;-81
2021/12/18 08:44:37;;;;;;;18.47;10.97;;;;;;;0.12;100.00;97973.97;4974168;28;20260;-82
2021/12/18 08:47:04;;;;;;;17.33;9.40;;;;;;;0.11;100.00;97962.50;4969405;28;20197;-81
2021/12/18 08:49:32;;;;;;;22.57;10.90;;;;;;;0.16;100.00;97975.41;4970508;28;20216;-81
2021/12/18 08:52:00;;;;;;;22.17;12.73;;;;;;;0.17;100.00;97966.47;4975380;28;20256;-81
2021/12/18 08:54:30;;;;;;;21.30;12.17;;;;;;;0.20;100.00;97963.53;4967313;28;20304;-81
2021/12/18 08:56:57;;;;;;;13.00;7.60;;;;;;;0.11;100.00;97951.00;4980224;28;20224;-81
2021/12/18 08:59:24;;;;;;;20.47;11.80;;;;;;;0.19;100.00;97960.03;4974460;28;20247;-82
2021/12/18 09:01:51;;;;;;;16.07;7.90;;;;;;;0.12;100.00;97952.72;4969672;28;20209;-81
2021/12/18 09:04:18;;;;;;;27.53;15.70;;;;;;;0.15;100.00;97947.16;4978597;28;20205;-81
2021/12/18 09:06:46;;;;;;;21.20;14.03;;;;;;;0.14;100.00;97948.13;4976632;28;20209;-82
2021/12/18 09:09:14;;;;;;;19.03;11.57;;;;;;;0.22;100.00;97945.66;4963839;28;20220;-82
2021/12/18 09:11:41;;;;;;;18.00;10.90;;;;;;;0.22;100.00;97943.00;4973847;28;20296;-83
2021/12/18 09:14:09;;;;;;;17.23;9.50;;;;;;;0.36;100.00;97950.69;4977230;28;20205;-81
2021/12/18 09:16:36;;;;;;;15.67;9.13;;;;;;;0.38;100.00;97944.28;4984202;28;20204;-81
2021/12/18 09:19:03;;;;;;;15.93;9.13;;;;;;;0.33;100.00;97945.63;4967214;28;20225;-82
2021/12/18 09:21:30;;;;;;;18.27;9.80;;;;;;;0.37;100.00;97936.41;4961162;28;20206;-81
2021/12/18 09:23:58;;;;;;;14.17;8.57;;;;;;;0.43;100.00;97941.22;4985597;28;20208;-82
2021/12/18 09:26:26;;;;;;;12.57;7.73;;;;;;;0.24;100.00;97944.59;4974866;28;20193;-81
2021/12/18 09:28:53;;;;;;;16.20;8.77;;;;;;;0.27;100.00;97948.78;4962793;28;20209;-81
2021/12/18 09:31:20;;;;;;;15.87;8.90;;;;;;;0.37;100.00;97949.72;4983069;28;20206;-80
2021/12/18 09:33:48;;;;;;;13.83;8.07;;;;;;;0.49;100.00;97940.72;4982322;28;20213;-81
2021/12/18 09:36:15;;;;;;;13.00;7.33;;;;;;;0.57;100.00;97948.88;4977560;28;20209;-81
2021/12/18 09:38:42;;;;;;;13.77;7.83;;;;;;;0.63;100.00;97943.06;4964625;28;20209;-81
2021/12/18 09:41:10;;;;;;;15.03;8.93;;;;;;;0.75;100.00;97943.84;4970501;28;20240;-81
2021/12/18 09:43:39;;;;;;;14.83;8.50;;;;;;;0.74;100.00;97940.34;4990892;28;20208;-82
2021/12/18 09:46:08;;;;;;;13.93;8.27;;;;;;;0.74;100.00;97943.00;4957203;28;20332;-82
2021/12/18 09:48:36;;;;;;;14.80;8.20;;;;;;;0.71;100.00;97939.75;4983317;28;20206;-82
2021/12/18 09:51:07;;;;;;;15.27;8.50;;;;;;;0.60;100.00;97932.66;4978917;28;20221;-82
2021/12/18 09:53:34;;;;;;;15.13;8.40;;;;;;;0.61;100.00;97925.53;4981856;28;20201;-81
2021/12/18 09:56:03;;;;;;;13.80;8.33;;;;;;;0.56;100.00;97925.94;4987328;28;20205;-81
2021/12/18 09:58:31;;;;;;;18.03;9.00;;;;;;;0.60;100.00;97931.81;4967473;28;20209;-81
2021/12/18 10:00:59;;;;;;;15.43;8.67;;;;;;;0.59;100.00;97927.50;4959839;28;20217;-81
2021/12/18 10:03:45;;;;;;;14.90;9.30;;;;;;;0.59;100.00;97920.38;4967773;28;20223;-81
2021/12/18 10:06:34;;;;;;;16.63;9.20;;;;;;;0.60;100.00;97915.88;4971889;28;20210;-82
2021/12/18 10:09:02;;;;;;;15.87;9.10;;;;;;;0.64;100.00;97919.97;4983559;28;20303;-81
2021/12/18 10:11:29;;;;;;;16.47;8.60;;;;;;;0.77;100.00;97918.78;4960382;28;20214;-81
2021/12/18 10:13:59;;;;;;;17.10;8.30;;;;;;;0.82;100.00;97909.59;4960658;28;20223;-81
2021/12/18 10:16:29;;;;;;;16.83;8.70;;;;;;;0.85;100.00;97915.47;4981004;28;20201;-82
2021/12/18 10:18:57;;;;;;;14.33;8.87;;;;;;;0.86;100.00;97895.03;4966623;28;20206;-82
2021/12/18 10:21:27;;;;;;;18.07;9.43;;;;;;;0.86;100.00;97900.34;4971441;28;20211;-83
2021/12/18 10:23:56;;;;;;;17.60;8.07;;;;;;;0.89;100.00;97900.09;4971367;28;20239;-82
2021/12/18 10:26:37;;;;;;;13.87;7.97;;;;;;;0.84;100.00;97897.84;4976620;28;20218;-82
2021/12/18 10:29:07;;;;;;;16.00;8.30;;;;;;;0.93;100.00;97898.88;4976943;28;20232;-81
2021/12/18 10:31:44;;;;;;;15.90;8.50;;;;;;;0.99;100.00;97901.00;4957229;28;20224;-82
2021/12/18 10:34:17;;;;;;;15.37;8.90;;;;;;;0.99;100.00;97898.34;4976842;28;20212;-82
2021/12/18 10:37:14;;;;;;;17.00;8.77;;;;;;;0.98;100.00;97899.31;4961564;28;20475;-82
2021/12/18 10:39:44;;;;;;;16.77;9.17;;;;;;;1.02;100.00;97898.88;4978733;28;20232;-82
2021/12/18 10:42:24;;;;;;;17.17;9.03;;;;;;;0.98;100.00;97902.81;4965823;28;20302;-82
2021/12/18 10:45:11;;;;;;;14.87;8.83;;;;;;;1.07;100.00;97901.16;4958781;28;20244;-82
2021/12/18 10:47:59;;;;;;;14.23;8.77;;;;;;;1.11;100.00;97898.09;4958586;28;20223;-81
2021/12/18 10:50:33;;;;;;;15.00;7.73;;;;;;;1.01;100.00;97883.09;4954999;28;20209;-82
2021/12/18 10:53:05;;;;;;;16.27;8.83;;;;;;;1.01;100.00;97883.94;4974389;28;20303;-82
2021/12/18 10:55:36;;;;;;;14.20;8.37;;;;;;;1.09;100.00;97881.44;4971876;28;20211;-81
2021/12/18 10:58:05;;;;;;;14.13;8.23;;;;;;;1.17;100.00;97878.13;4966566;28;20247;-81
2021/12/18 11:00:39;;;;;;;14.13;8.07;;;;;;;1.19;100.00;97873.50;4986501;28;20229;-81
2021/12/18 11:03:24;;;;;;;21.73;8.27;;;;;;;1.30;100.00;97870.72;4982169;28;20221;-82
2021/12/18 11:06:12;;;;;;;16.43;8.77;;;;;;;1.30;100.00;97870.72;4980594;28;20210;-83
2021/12/18 11:09:04;;;;;;;12.93;8.07;;;;;;;1.16;100.00;97865.78;4985539;28;20216;-82
2021/12/18 11:14:34;;;;;;;16.33;8.73;;;;;;;1.09;100.00;97872.63;4968351;28;20226;-82
2021/12/18 11:17:03;;;;;;;18.37;8.67;;;;;;;1.10;100.00;97866.34;4980106;28;20217;-82
2021/12/18 11:19:34;;;;;;;14.67;8.77;;;;;;;1.20;100.00;97869.84;4962407;28;20247;-82
2021/12/18 11:22:04;;;;;;;15.77;8.87;;;;;;;1.24;100.00;97865.09;4984403;28;20307;-82
2021/12/18 11:24:34;;;;;;;16.53;9.03;;;;;;;1.29;100.00;97858.38;4966406;28;20204;-81
2021/12/18 11:27:05;;;;;;;19.53;9.67;;;;;;;1.22;100.00;97853.75;4966913;28;20222;-82
2021/12/18 11:29:40;;;;;;;18.13;8.83;;;;;;;1.22;100.00;97859.91;4979606;28;20227;-82
2021/12/18 11:32:09;;;;;;;15.07;8.63;;;;;;;1.24;100.00;97857.97;4991326;28;20215;-82
2021/12/18 11:34:39;;;;;;;18.27;9.43;;;;;;;1.14;100.00;97857.09;4970814;28;20216;-82
2021/12/18 11:37:09;;;;;;;18.83;9.60;;;;;;;1.19;100.00;97836.25;4979499;28;20217;-82
2021/12/18 11:39:37;;;;;;;17.83;8.73;;;;;;;1.18;100.00;97836.38;4977232;28;20295;-82
2021/12/18 11:42:06;;;;;;;13.97;8.50;;;;;;;1.17;100.00;97827.56;4978994;28;20217;-81
2021/12/18 11:44:35;;;;;;;14.87;8.63;;;;;;;1.24;100.00;97838.50;4983317;28;20770;-83
2021/12/18 11:47:27;;;;;;;19.43;9.20;;;;;;;1.18;100.00;97826.59;4985349;28;20257;-81
2021/12/18 11:49:59;;;;;;;16.17;9.10;;;;;;;1.02;100.00;97818.28;4975058;28;20236;-81
2021/12/18 11:52:27;;;;;;;16.13;8.97;;;;;;;1.01;100.00;97811.28;4977247;28;20200;-82
2021/12/18 11:54:56;;;;;;;16.53;9.10;;;;;;;1.04;100.00;97814.47;4966922;28;20201;-82
2021/12/18 11:57:40;;;;;;;16.30;9.60;;;;;;;1.15;100.00;97805.56;4974166;28;20220;-82
2021/12/18 12:00:29;;;;;;;16.83;9.07;;;;;;;1.05;100.00;97807.34;4974422;28;20228;-82
2021/12/18 12:02:58;;;;;;;13.07;7.97;;;;;;;1.07;100.00;97800.09;4983926;28;20202;-82
2021/12/18 12:05:36;;;;;;;15.43;9.10;;;;;;;1.15;100.00;97794.91;4972192;28;20215;-81
2021/12/18 12:08:26;;;;;;;15.47;9.23;;;;;;;1.16;100.00;97791.28;4981990;28;20204;-81
2021/12/18 12:11:15;;;;;;;19.43;9.07;;;;;;;1.14;100.00;97786.09;4972608;28;20215;-82
2021/12/18 12:14:03;;;;;;;15.77;8.97;;;;;;;1.10;100.00;97765.25;4964070;28;20262;-82